sensor_id;sensor_type;location;lat;lon;timestamp;pressure;altitude;pressure_sealevel;temperature;humidity
42887;BME280;29032;56.028;92.904;2023-07-22T00:00:34;99003.47;;;20.32;65.27
42887;BME280;29032;56.028;92.904;2023-07-22T00:05:36;99006.28;;;20.32;65.02
42887;BME280;29032;56.028;92.904;2023-07-22T00:10:41;99001.22;;;20.41;65.25
42887;BME280;29032;56.028;92.904;2023-07-22T00:15:44;99001.94;;;20.41;65.55
42887;BME280;29032;56.028;92.904;2023-07-22T00:20:46;99000.59;;;20.42;65.30
42887;BME280;29032;56.028;92.904;2023-07-22T00:25:49;98996.84;;;20.49;64.87
42887;BME280;29032;56.028;92.904;2023-07-22T00:30:52;98994.47;;;20.55;65.56
42887;BME280;29032;56.028;92.904;2023-07-22T00:35:54;99005.28;;;20.59;65.09
42887;BME280;29032;56.028;92.904;2023-07-22T00:40:56;99002.13;;;20.64;64.61
42887;BME280;29032;56.028;92.904;2023-07-22T00:46:00;98999.44;;;20.66;64.97
42887;BME280;29032;56.028;92.904;2023-07-22T00:51:02;98997.97;;;20.65;64.82
42887;BME280;29032;56.028;92.904;2023-07-22T00:56:04;99000.94;;;20.67;64.89
42887;BME280;29032;56.028;92.904;2023-07-22T01:01:08;99005.09;;;20.66;64.98
42887;BME280;29032;56.028;92.904;2023-07-22T01:06:10;99006.44;;;20.65;65.10
42887;BME280;29032;56.028;92.904;2023-07-22T01:11:12;99006.56;;;20.67;64.98
42887;BME280;29032;56.028;92.904;2023-07-22T01:16:16;98999.06;;;20.82;65.75
42887;BME280;29032;56.028;92.904;2023-07-22T01:21:19;98993.22;;;20.89;64.98
42887;BME280;29032;56.028;92.904;2023-07-22T01:26:23;98993.16;;;20.99;64.38
42887;BME280;29032;56.028;92.904;2023-07-22T01:31:25;98992.06;;;21.04;64.36
42887;BME280;29032;56.028;92.904;2023-07-22T01:36:27;98978.38;;;21.10;64.41
42887;BME280;29032;56.028;92.904;2023-07-22T01:41:30;98976.50;;;21.25;63.94
42887;BME280;29032;56.028;92.904;2023-07-22T01:46:32;98978.97;;;21.30;64.33
42887;BME280;29032;56.028;92.904;2023-07-22T01:51:35;98966.00;;;21.37;63.91
42887;BME280;29032;56.028;92.904;2023-07-22T01:56:39;98962.72;;;21.52;63.77
42887;BME280;29032;56.028;92.904;2023-07-22T02:01:41;98947.66;;;21.59;63.90
42887;BME280;29032;56.028;92.904;2023-07-22T02:06:43;98937.00;;;21.69;63.74
42887;BME280;29032;56.028;92.904;2023-07-22T02:11:46;98948.91;;;21.80;63.88
42887;BME280;29032;56.028;92.904;2023-07-22T02:16:48;98941.28;;;21.82;64.78
42887;BME280;29032;56.028;92.904;2023-07-22T02:21:51;98927.34;;;21.96;63.81
42887;BME280;29032;56.028;92.904;2023-07-22T02:26:54;98932.50;;;22.11;63.42
42887;BME280;29032;56.028;92.904;2023-07-22T02:31:56;98928.09;;;22.20;63.01
42887;BME280;29032;56.028;92.904;2023-07-22T02:36:58;98931.03;;;22.34;62.86
42887;BME280;29032;56.028;92.904;2023-07-22T02:42:02;98924.75;;;22.47;62.90
42887;BME280;29032;56.028;92.904;2023-07-22T02:47:04;98916.00;;;22.54;62.67
42887;BME280;29032;56.028;92.904;2023-07-22T02:52:06;98911.47;;;22.61;62.63
42887;BME280;29032;56.028;92.904;2023-07-22T02:57:10;98913.63;;;22.74;61.83
42887;BME280;29032;56.028;92.904;2023-07-22T03:02:12;98913.22;;;22.80;61.57
42887;BME280;29032;56.028;92.904;2023-07-22T03:07:14;98907.81;;;22.84;61.47
42887;BME280;29032;56.028;92.904;2023-07-22T03:12:18;98909.00;;;22.93;61.20
42887;BME280;29032;56.028;92.904;2023-07-22T03:17:20;98895.22;;;22.99;61.98
42887;BME280;29032;56.028;92.904;2023-07-22T03:22:22;98896.50;;;23.09;61.66
42887;BME280;29032;56.028;92.904;2023-07-22T03:27:26;98899.28;;;23.21;61.89
42887;BME280;29032;56.028;92.904;2023-07-22T03:32:28;98893.34;;;23.29;61.20
42887;BME280;29032;56.028;92.904;2023-07-22T03:37:30;98904.00;;;23.42;59.89
42887;BME280;29032;56.028;92.904;2023-07-22T03:42:33;98903.81;;;23.52;61.11
42887;BME280;29032;56.028;92.904;2023-07-22T03:47:35;98892.63;;;23.54;60.06
42887;BME280;29032;56.028;92.904;2023-07-22T03:52:38;98897.25;;;23.61;59.45
42887;BME280;29032;56.028;92.904;2023-07-22T03:57:41;98889.38;;;23.73;59.43
42887;BME280;29032;56.028;92.904;2023-07-22T04:02:43;98891.31;;;23.82;59.27
42887;BME280;29032;56.028;92.904;2023-07-22T04:07:45;98887.63;;;23.93;58.82
42887;BME280;29032;56.028;92.904;2023-07-22T04:12:49;98879.88;;;24.08;59.27
42887;BME280;29032;56.028;92.904;2023-07-22T04:17:51;98882.84;;;24.10;58.61
42887;BME280;29032;56.028;92.904;2023-07-22T04:22:53;98874.34;;;24.10;58.33
42887;BME280;29032;56.028;92.904;2023-07-22T04:27:57;98869.28;;;24.22;57.36
42887;BME280;29032;56.028;92.904;2023-07-22T04:33:00;98860.56;;;24.32;57.06
42887;BME280;29032;56.028;92.904;2023-07-22T04:38:02;98859.50;;;24.39;57.63
42887;BME280;29032;56.028;92.904;2023-07-22T04:43:06;98859.38;;;24.51;55.78
42887;BME280;29032;56.028;92.904;2023-07-22T04:48:08;98845.59;;;24.59;55.57
42887;BME280;29032;56.028;92.904;2023-07-22T04:53:11;98847.47;;;24.68;56.21
42887;BME280;29032;56.028;92.904;2023-07-22T04:58:14;98852.41;;;24.81;54.67
42887;BME280;29032;56.028;92.904;2023-07-22T05:03:17;98841.94;;;24.86;55.46
42887;BME280;29032;56.028;92.904;2023-07-22T05:08:19;98836.34;;;25.01;55.15
42887;BME280;29032;56.028;92.904;2023-07-22T05:13:22;98836.28;;;25.15;54.98
42887;BME280;29032;56.028;92.904;2023-07-22T05:18:24;98835.28;;;25.24;52.65
42887;BME280;29032;56.028;92.904;2023-07-22T05:23:26;98813.13;;;25.37;52.78
42887;BME280;29032;56.028;92.904;2023-07-22T05:28:30;98822.13;;;25.47;53.36
42887;BME280;29032;56.028;92.904;2023-07-22T05:33:32;98815.69;;;25.62;52.54
42887;BME280;29032;56.028;92.904;2023-07-22T05:38:34;98817.50;;;25.87;50.63
42887;BME280;29032;56.028;92.904;2023-07-22T05:43:37;98820.16;;;26.15;51.35
42887;BME280;29032;56.028;92.904;2023-07-22T05:48:40;98805.06;;;26.28;51.40
42887;BME280;29032;56.028;92.904;2023-07-22T05:53:42;98808.00;;;26.48;50.93
42887;BME280;29032;56.028;92.904;2023-07-22T05:58:45;98797.63;;;26.72;51.77
42887;BME280;29032;56.028;92.904;2023-07-22T06:03:47;98793.41;;;26.91;51.45
42887;BME280;29032;56.028;92.904;2023-07-22T06:08:49;98790.81;;;27.17;51.67
42887;BME280;29032;56.028;92.904;2023-07-22T06:13:53;98787.09;;;27.50;51.76
42887;BME280;29032;56.028;92.904;2023-07-22T06:18:55;98779.34;;;27.72;52.19
42887;BME280;29032;56.028;92.904;2023-07-22T06:23:57;98772.19;;;27.91;49.56
42887;BME280;29032;56.028;92.904;2023-07-22T06:29:01;98774.00;;;28.03;46.76
42887;BME280;29032;56.028;92.904;2023-07-22T06:34:03;98764.66;;;28.00;46.17
42887;BME280;29032;56.028;92.904;2023-07-22T06:39:05;98766.53;;;28.13;46.44
42887;BME280;29032;56.028;92.904;2023-07-22T06:44:08;98758.63;;;28.12;46.07
42887;BME280;29032;56.028;92.904;2023-07-22T06:49:10;98751.66;;;28.17;48.83
42887;BME280;29032;56.028;92.904;2023-07-22T06:54:12;98747.03;;;28.27;46.70
42887;BME280;29032;56.028;92.904;2023-07-22T06:59:16;98730.03;;;28.32;45.16
42887;BME280;29032;56.028;92.904;2023-07-22T07:04:18;98725.50;;;28.24;43.93
42887;BME280;29032;56.028;92.904;2023-07-22T07:09:20;98720.22;;;28.15;45.40
42887;BME280;29032;56.028;92.904;2023-07-22T07:14:24;98715.91;;;28.14;44.97
42887;BME280;29032;56.028;92.904;2023-07-22T07:19:26;98706.56;;;28.11;45.69
42887;BME280;29032;56.028;92.904;2023-07-22T07:24:28;98705.69;;;28.07;44.63
42887;BME280;29032;56.028;92.904;2023-07-22T07:29:32;98702.31;;;28.12;44.82
42887;BME280;29032;56.028;92.904;2023-07-22T07:34:34;98703.50;;;28.05;44.54
42887;BME280;29032;56.028;92.904;2023-07-22T07:39:36;98702.06;;;28.04;44.36
42887;BME280;29032;56.028;92.904;2023-07-22T07:44:39;98694.28;;;28.07;44.25
42887;BME280;29032;56.028;92.904;2023-07-22T07:49:41;98686.31;;;28.03;44.30
42887;BME280;29032;56.028;92.904;2023-07-22T07:54:43;98676.38;;;28.04;43.83
42887;BME280;29032;56.028;92.904;2023-07-22T07:59:47;98663.78;;;28.11;44.63
42887;BME280;29032;56.028;92.904;2023-07-22T08:04:49;98646.78;;;28.15;44.89
42887;BME280;29032;56.028;92.904;2023-07-22T08:09:51;98646.97;;;28.21;46.35
42887;BME280;29032;56.028;92.904;2023-07-22T08:14:54;98643.06;;;28.33;43.73
42887;BME280;29032;56.028;92.904;2023-07-22T08:19:56;98620.75;;;28.27;44.14
42887;BME280;29032;56.028;92.904;2023-07-22T08:24:58;98618.16;;;28.35;44.13
42887;BME280;29032;56.028;92.904;2023-07-22T08:30:02;98625.63;;;28.46;44.07
42887;BME280;29032;56.028;92.904;2023-07-22T08:35:05;98616.53;;;28.52;43.87
42887;BME280;29032;56.028;92.904;2023-07-22T08:40:08;98615.50;;;28.65;41.91
42887;BME280;29032;56.028;92.904;2023-07-22T08:45:12;98606.19;;;28.89;42.06
42887;BME280;29032;56.028;92.904;2023-07-22T08:50:16;98608.66;;;29.26;41.16
42887;BME280;29032;56.028;92.904;2023-07-22T08:55:19;98602.81;;;29.22;41.18
42887;BME280;29032;56.028;92.904;2023-07-22T09:00:22;98606.28;;;29.45;41.90
42887;BME280;29032;56.028;92.904;2023-07-22T09:05:25;98606.50;;;29.53;40.48
42887;BME280;29032;56.028;92.904;2023-07-22T09:10:28;98602.44;;;29.62;42.53
42887;BME280;29032;56.028;92.904;2023-07-22T09:15:32;98601.31;;;29.45;41.16
42887;BME280;29032;56.028;92.904;2023-07-22T09:20:36;98595.78;;;29.25;40.63
42887;BME280;29032;56.028;92.904;2023-07-22T09:25:39;98604.28;;;29.23;39.51
42887;BME280;29032;56.028;92.904;2023-07-22T09:30:43;98597.94;;;29.01;40.27
42887;BME280;29032;56.028;92.904;2023-07-22T09:35:46;98591.56;;;28.76;42.72
42887;BME280;29032;56.028;92.904;2023-07-22T09:40:49;98587.13;;;28.71;40.99
42887;BME280;29032;56.028;92.904;2023-07-22T09:45:52;98587.25;;;29.01;39.23
42887;BME280;29032;56.028;92.904;2023-07-22T09:50:58;98585.06;;;29.26;39.56
42887;BME280;29032;56.028;92.904;2023-07-22T09:56:03;98585.81;;;29.26;40.54
42887;BME280;29032;56.028;92.904;2023-07-22T10:01:07;98587.03;;;29.19;39.79
42887;BME280;29032;56.028;92.904;2023-07-22T10:06:10;98585.81;;;29.26;39.93
42887;BME280;29032;56.028;92.904;2023-07-22T10:11:13;98586.78;;;29.37;38.77
42887;BME280;29032;56.028;92.904;2023-07-22T10:16:18;98590.38;;;29.38;37.97
42887;BME280;29032;56.028;92.904;2023-07-22T10:21:21;98578.88;;;29.35;39.01
42887;BME280;29032;56.028;92.904;2023-07-22T10:26:23;98572.41;;;29.33;37.69
42887;BME280;29032;56.028;92.904;2023-07-22T10:31:30;98576.91;;;29.42;38.91
42887;BME280;29032;56.028;92.904;2023-07-22T10:36:32;98573.09;;;29.31;37.68
42887;BME280;29032;56.028;92.904;2023-07-22T10:41:38;98561.78;;;29.38;37.87
42887;BME280;29032;56.028;92.904;2023-07-22T10:46:41;98554.09;;;29.16;39.73
42887;BME280;29032;56.028;92.904;2023-07-22T10:51:48;98555.16;;;29.03;39.23
42887;BME280;29032;56.028;92.904;2023-07-22T10:56:50;98537.69;;;28.91;39.73
42887;BME280;29032;56.028;92.904;2023-07-22T11:01:53;98542.22;;;29.00;40.44
42887;BME280;29032;56.028;92.904;2023-07-22T11:06:56;98552.19;;;28.99;41.10
42887;BME280;29032;56.028;92.904;2023-07-22T11:11:59;98552.88;;;28.97;41.22
42887;BME280;29032;56.028;92.904;2023-07-22T11:17:04;98547.72;;;28.92;39.18
42887;BME280;29032;56.028;92.904;2023-07-22T11:22:06;98538.19;;;29.09;39.83
42887;BME280;29032;56.028;92.904;2023-07-22T11:27:08;98539.72;;;28.86;39.16
42887;BME280;29032;56.028;92.904;2023-07-22T11:32:17;98542.06;;;28.94;38.87
42887;BME280;29032;56.028;92.904;2023-07-22T11:37:19;98548.69;;;28.74;40.72
42887;BME280;29032;56.028;92.904;2023-07-22T11:42:21;98547.06;;;28.67;40.04
42887;BME280;29032;56.028;92.904;2023-07-22T11:47:30;98557.81;;;28.69;40.78
42887;BME280;29032;56.028;92.904;2023-07-22T11:52:33;98543.72;;;28.51;40.81
42887;BME280;29032;56.028;92.904;2023-07-22T11:57:35;98547.22;;;28.49;41.30
42887;BME280;29032;56.028;92.904;2023-07-22T12:02:41;98558.81;;;28.53;41.64
42887;BME280;29032;56.028;92.904;2023-07-22T12:07:43;98554.53;;;28.31;42.46
42887;BME280;29032;56.028;92.904;2023-07-22T12:12:46;98548.53;;;28.20;42.79
42887;BME280;29032;56.028;92.904;2023-07-22T12:17:53;98568.25;;;28.12;43.84
42887;BME280;29032;56.028;92.904;2023-07-22T12:22:56;98588.69;;;28.05;43.44
42887;BME280;29032;56.028;92.904;2023-07-22T12:27:58;98609.19;;;27.99;42.88
42887;BME280;29032;56.028;92.904;2023-07-22T12:33:02;98616.28;;;27.98;43.42
42887;BME280;29032;56.028;92.904;2023-07-22T12:38:04;98625.88;;;27.87;43.84
42887;BME280;29032;56.028;92.904;2023-07-22T12:43:06;98635.41;;;27.73;45.10
42887;BME280;29032;56.028;92.904;2023-07-22T12:48:09;98636.75;;;27.70;44.16
42887;BME280;29032;56.028;92.904;2023-07-22T12:53:11;98644.56;;;27.48;44.04
42887;BME280;29032;56.028;92.904;2023-07-22T12:58:14;98656.31;;;27.38;42.18
42887;BME280;29032;56.028;92.904;2023-07-22T13:03:17;98661.06;;;27.32;42.29
42887;BME280;29032;56.028;92.904;2023-07-22T13:08:19;98667.16;;;27.04;43.02
42887;BME280;29032;56.028;92.904;2023-07-22T13:13:22;98655.78;;;26.84;43.45
42887;BME280;29032;56.028;92.904;2023-07-22T13:18:25;98662.06;;;26.81;44.23
42887;BME280;29032;56.028;92.904;2023-07-22T13:23:27;98657.59;;;26.76;43.17
42887;BME280;29032;56.028;92.904;2023-07-22T13:28:29;98656.19;;;26.77;42.78
42887;BME280;29032;56.028;92.904;2023-07-22T13:33:33;98666.13;;;26.76;44.38
42887;BME280;29032;56.028;92.904;2023-07-22T13:38:35;98669.94;;;26.64;43.99
42887;BME280;29032;56.028;92.904;2023-07-22T13:43:37;98659.56;;;26.53;45.59
42887;BME280;29032;56.028;92.904;2023-07-22T13:48:40;98665.19;;;26.51;46.28
42887;BME280;29032;56.028;92.904;2023-07-22T13:53:42;98664.63;;;26.37;47.06
42887;BME280;29032;56.028;92.904;2023-07-22T13:58:44;98672.84;;;26.29;47.23
42887;BME280;29032;56.028;92.904;2023-07-22T14:03:48;98677.16;;;26.30;47.96
42887;BME280;29032;56.028;92.904;2023-07-22T14:08:50;98691.13;;;26.24;46.93
42887;BME280;29032;56.028;92.904;2023-07-22T14:13:52;98683.97;;;26.23;46.21
42887;BME280;29032;56.028;92.904;2023-07-22T14:18:55;98686.88;;;26.25;46.53
42887;BME280;29032;56.028;92.904;2023-07-22T14:23:57;98676.41;;;26.12;46.54
42887;BME280;29032;56.028;92.904;2023-07-22T14:28:59;98672.69;;;26.07;48.07
42887;BME280;29032;56.028;92.904;2023-07-22T14:34:03;98688.00;;;26.00;47.46
42887;BME280;29032;56.028;92.904;2023-07-22T14:39:05;98695.16;;;25.67;48.49
42887;BME280;29032;56.028;92.904;2023-07-22T14:44:08;98700.25;;;25.53;48.77
42887;BME280;29032;56.028;92.904;2023-07-22T14:49:12;98701.44;;;25.48;49.71
42887;BME280;29032;56.028;92.904;2023-07-22T14:54:14;98694.47;;;25.35;49.78
42887;BME280;29032;56.028;92.904;2023-07-22T14:59:16;98687.69;;;25.26;49.37
42887;BME280;29032;56.028;92.904;2023-07-22T15:04:20;98688.81;;;25.19;49.07
42887;BME280;29032;56.028;92.904;2023-07-22T15:09:22;98690.00;;;24.98;50.21
42887;BME280;29032;56.028;92.904;2023-07-22T15:14:24;98695.13;;;24.86;50.01
42887;BME280;29032;56.028;92.904;2023-07-22T15:19:27;98689.06;;;24.78;50.45
42887;BME280;29032;56.028;92.904;2023-07-22T15:24:29;98689.19;;;24.51;50.01
42887;BME280;29032;56.028;92.904;2023-07-22T15:29:31;98679.84;;;24.32;50.79
42887;BME280;29032;56.028;92.904;2023-07-22T15:34:35;98674.91;;;24.33;51.11
42887;BME280;29032;56.028;92.904;2023-07-22T15:39:38;98663.69;;;24.21;51.82
42887;BME280;29032;56.028;92.904;2023-07-22T15:44:40;98653.81;;;24.22;50.14
42887;BME280;29032;56.028;92.904;2023-07-22T15:49:43;98665.00;;;24.34;52.54
42887;BME280;29032;56.028;92.904;2023-07-22T15:54:46;98665.56;;;24.30;51.62
42887;BME280;29032;56.028;92.904;2023-07-22T15:59:47;98668.50;;;24.32;51.96
42887;BME280;29032;56.028;92.904;2023-07-22T16:04:51;98669.13;;;24.31;50.93
42887;BME280;29032;56.028;92.904;2023-07-22T16:09:53;98656.34;;;24.16;52.76
42887;BME280;29032;56.028;92.904;2023-07-22T16:14:55;98671.00;;;24.10;52.32
42887;BME280;29032;56.028;92.904;2023-07-22T16:19:59;98653.97;;;24.10;52.34
42887;BME280;29032;56.028;92.904;2023-07-22T16:25:01;98647.16;;;24.02;52.88
42887;BME280;29032;56.028;92.904;2023-07-22T16:30:04;98654.31;;;24.03;53.97
42887;BME280;29032;56.028;92.904;2023-07-22T16:35:07;98641.28;;;23.98;53.91
42887;BME280;29032;56.028;92.904;2023-07-22T16:40:10;98636.78;;;23.92;53.88
42887;BME280;29032;56.028;92.904;2023-07-22T16:45:12;98633.53;;;23.98;53.98
42887;BME280;29032;56.028;92.904;2023-07-22T16:50:16;98640.00;;;24.01;53.74
42887;BME280;29032;56.028;92.904;2023-07-22T16:55:18;98634.63;;;23.77;53.89
42887;BME280;29032;56.028;92.904;2023-07-22T17:00:20;98645.03;;;23.73;54.78
42887;BME280;29032;56.028;92.904;2023-07-22T17:05:24;98654.78;;;23.83;55.49
42887;BME280;29032;56.028;92.904;2023-07-22T17:10:26;98650.06;;;23.74;54.40
42887;BME280;29032;56.028;92.904;2023-07-22T17:15:28;98660.56;;;23.72;54.73
42887;BME280;29032;56.028;92.904;2023-07-22T17:20:32;98666.75;;;23.82;52.56
42887;BME280;29032;56.028;92.904;2023-07-22T17:25:34;98669.69;;;23.70;53.25
42887;BME280;29032;56.028;92.904;2023-07-22T17:30:36;98680.31;;;23.56;54.04
42887;BME280;29032;56.028;92.904;2023-07-22T17:35:40;98677.69;;;23.60;53.40
42887;BME280;29032;56.028;92.904;2023-07-22T17:40:42;98669.22;;;23.46;54.05
42887;BME280;29032;56.028;92.904;2023-07-22T17:45:44;98674.88;;;23.46;54.74
42887;BME280;29032;56.028;92.904;2023-07-22T17:50:48;98678.00;;;23.52;54.38
42887;BME280;29032;56.028;92.904;2023-07-22T17:55:50;98669.41;;;23.50;54.38
42887;BME280;29032;56.028;92.904;2023-07-22T18:00:52;98670.88;;;23.51;54.36
42887;BME280;29032;56.028;92.904;2023-07-22T18:05:56;98671.59;;;23.52;53.99
42887;BME280;29032;56.028;92.904;2023-07-22T18:10:58;98668.47;;;23.46;52.69
42887;BME280;29032;56.028;92.904;2023-07-22T18:16:00;98671.19;;;23.44;53.27
42887;BME280;29032;56.028;92.904;2023-07-22T18:21:04;98675.59;;;23.47;54.43
42887;BME280;29032;56.028;92.904;2023-07-22T18:26:06;98681.28;;;23.47;52.58
42887;BME280;29032;56.028;92.904;2023-07-22T18:31:08;98671.00;;;23.40;54.17
42887;BME280;29032;56.028;92.904;2023-07-22T18:36:12;98671.19;;;23.44;52.82
42887;BME280;29032;56.028;92.904;2023-07-22T18:41:15;98669.06;;;23.30;52.69
42887;BME280;29032;56.028;92.904;2023-07-22T18:46:19;98673.59;;;23.35;54.22
42887;BME280;29032;56.028;92.904;2023-07-22T18:51:23;98674.72;;;23.30;54.23
42887;BME280;29032;56.028;92.904;2023-07-22T18:56:25;98680.94;;;23.27;54.32
42887;BME280;29032;56.028;92.904;2023-07-22T19:01:27;98688.56;;;23.24;54.86
42887;BME280;29032;56.028;92.904;2023-07-22T19:06:30;98684.38;;;23.25;55.45
42887;BME280;29032;56.028;92.904;2023-07-22T19:11:32;98683.94;;;23.17;54.44
42887;BME280;29032;56.028;92.904;2023-07-22T19:16:34;98671.69;;;23.13;54.44
42887;BME280;29032;56.028;92.904;2023-07-22T19:21:38;98657.00;;;23.16;53.18
42887;BME280;29032;56.028;92.904;2023-07-22T19:26:40;98641.06;;;23.09;52.90
42887;BME280;29032;56.028;92.904;2023-07-22T19:31:42;98634.59;;;23.06;52.64
42887;BME280;29032;56.028;92.904;2023-07-22T19:36:46;98636.47;;;23.02;52.74
42887;BME280;29032;56.028;92.904;2023-07-22T19:41:48;98642.34;;;22.92;52.83
42887;BME280;29032;56.028;92.904;2023-07-22T19:46:50;98652.19;;;22.91;52.84
42887;BME280;29032;56.028;92.904;2023-07-22T19:51:53;98672.31;;;22.97;52.93
42887;BME280;29032;56.028;92.904;2023-07-22T19:57:01;98674.09;;;22.91;52.77
42887;BME280;29032;56.028;92.904;2023-07-22T20:02:04;98672.28;;;22.83;52.89
42887;BME280;29032;56.028;92.904;2023-07-22T20:07:07;98668.72;;;22.83;52.94
42887;BME280;29032;56.028;92.904;2023-07-22T20:12:10;98665.88;;;22.69;53.31
42887;BME280;29032;56.028;92.904;2023-07-22T20:17:12;98657.88;;;22.66;53.41
42887;BME280;29032;56.028;92.904;2023-07-22T20:22:16;98648.78;;;22.67;53.77
42887;BME280;29032;56.028;92.904;2023-07-22T20:27:18;98641.81;;;22.56;55.16
42887;BME280;29032;56.028;92.904;2023-07-22T20:32:20;98633.53;;;22.47;56.03
42887;BME280;29032;56.028;92.904;2023-07-22T20:37:24;98650.91;;;22.41;57.16
42887;BME280;29032;56.028;92.904;2023-07-22T20:42:26;98651.13;;;22.20;58.87
42887;BME280;29032;56.028;92.904;2023-07-22T20:47:28;98650.94;;;22.04;60.22
42887;BME280;29032;56.028;92.904;2023-07-22T20:52:32;98647.66;;;21.96;61.03
42887;BME280;29032;56.028;92.904;2023-07-22T20:57:34;98642.91;;;21.87;61.00
42887;BME280;29032;56.028;92.904;2023-07-22T21:02:36;98660.59;;;21.75;61.81
42887;BME280;29032;56.028;92.904;2023-07-22T21:07:39;98656.19;;;21.72;62.57
42887;BME280;29032;56.028;92.904;2023-07-22T21:12:41;98647.16;;;21.62;62.73
42887;BME280;29032;56.028;92.904;2023-07-22T21:17:43;98637.06;;;21.59;62.69
42887;BME280;29032;56.028;92.904;2023-07-22T21:22:47;98653.41;;;21.61;63.36
42887;BME280;29032;56.028;92.904;2023-07-22T21:27:49;98661.38;;;21.53;62.84
42887;BME280;29032;56.028;92.904;2023-07-22T21:32:51;98673.41;;;21.53;63.07
42887;BME280;29032;56.028;92.904;2023-07-22T21:37:55;98677.84;;;21.56;62.71
42887;BME280;29032;56.028;92.904;2023-07-22T21:42:57;98683.97;;;21.41;62.98
42887;BME280;29032;56.028;92.904;2023-07-22T21:47:59;98686.47;;;21.35;63.68
42887;BME280;29032;56.028;92.904;2023-07-22T21:53:02;98691.13;;;21.42;63.64
42887;BME280;29032;56.028;92.904;2023-07-22T21:58:04;98688.16;;;21.40;63.38
42887;BME280;29032;56.028;92.904;2023-07-22T22:03:06;98677.84;;;21.33;63.90
42887;BME280;29032;56.028;92.904;2023-07-22T22:08:10;98679.31;;;21.34;63.85
42887;BME280;29032;56.028;92.904;2023-07-22T22:13:11;98690.28;;;21.28;64.48
42887;BME280;29032;56.028;92.904;2023-07-22T22:18:14;98686.84;;;21.29;64.40
42887;BME280;29032;56.028;92.904;2023-07-22T22:23:17;98696.78;;;21.30;64.89
42887;BME280;29032;56.028;92.904;2023-07-22T22:28:19;98702.88;;;21.27;64.73
42887;BME280;29032;56.028;92.904;2023-07-22T22:33:21;98709.78;;;21.24;65.70
42887;BME280;29032;56.028;92.904;2023-07-22T22:38:25;98722.28;;;21.20;66.34
42887;BME280;29032;56.028;92.904;2023-07-22T22:43:27;98724.22;;;21.06;65.92
42887;BME280;29032;56.028;92.904;2023-07-22T22:48:29;98727.19;;;21.08;64.98
42887;BME280;29032;56.028;92.904;2023-07-22T22:53:33;98738.19;;;21.04;66.14
42887;BME280;29032;56.028;92.904;2023-07-22T22:58:35;98752.78;;;21.01;66.02
42887;BME280;29032;56.028;92.904;2023-07-22T23:03:37;98759.03;;;20.99;66.70
42887;BME280;29032;56.028;92.904;2023-07-22T23:08:41;98767.50;;;20.99;67.10
42887;BME280;29032;56.028;92.904;2023-07-22T23:13:43;98772.50;;;20.89;67.08
42887;BME280;29032;56.028;92.904;2023-07-22T23:18:47;98755.34;;;20.85;67.77
42887;BME280;29032;56.028;92.904;2023-07-22T23:23:51;98751.34;;;20.66;68.25
42887;BME280;29032;56.028;92.904;2023-07-22T23:28:53;98753.06;;;20.60;68.55
42887;BME280;29032;56.028;92.904;2023-07-22T23:33:55;98751.81;;;20.63;68.66
42887;BME280;29032;56.028;92.904;2023-07-22T23:38:58;98756.31;;;20.78;68.97
42887;BME280;29032;56.028;92.904;2023-07-22T23:44:00;98753.59;;;20.80;69.05
42887;BME280;29032;56.028;92.904;2023-07-22T23:49:03;98758.16;;;20.85;68.90
42887;BME280;29032;56.028;92.904;2023-07-22T23:54:06;98757.03;;;20.90;68.74
42887;BME280;29032;56.028;92.904;2023-07-22T23:59:08;98757.41;;;20.84;68.80
